Quimper-Cornouaille Airport

Airport
ICAO code: 
LFRQ
IATA Code: 
UIP
Summary
ICAO Region: 
EUR
Territory: 
Location: 
, Bretagne
Serving: 
Quimper
Elevation: 
297 ft
Coordinates: 
Aerial View: 
47° 58' 29.932" N, 4° 10' 4.03" W
Metar
Observation
LFRQ 210430Z AUTO 02005KT 9999 SCT038 01/M00 Q1038
Station
Quimper
Date/Time
2022-01-21 04:30:00
Wind direction
20°
Wind speed
05 kts
Lowest cloud amount
scattered clouds
Temperature
1°C
Dew point
-0°C
Humidity
93%
QNH
1038 hPa
Weather condition
n/a

Runways

Designator Length Width Surface Rops
4/22 810 45 ASP No/No
10/28 2150 45 ASP Yes/Yes
Airport map: 
Aerial View: 

SKYbrary Partners:

Safety knowledge contributed by: